VTUU/UBP METAR and TAF weather

Enter ICAO airport designator
Station Type Date Time Source
VTUU METAR 2022/01/26 08:00 UTC NOAA

VTUU 260800Z 04005KT 340V070 9999 SCT045 33/17 Q1009 NOSIG


Station Type Date Time Source
VTUU Decoded METAR 2022/01/26 08:00 UTC NOAA

Ubon Ratchathani, Thailand (VTUU) 15-15N 104-52E 127M
Jan 26, 2022 - 03:00 AM EST / 2022.01.26 0800 UTC
Wind: from the NE (040 degrees) at 6 MPH (5 KT) (direction variable):0
Visibility: greater than 7 mile(s):0
Sky conditions: partly cloudy
Temperature: 91 F (33 C)
Dew Point: 62 F (17 C)
Relative Humidity: 38%
Pressure (altimeter): 29.80 in. Hg (1009 hPa)
ob: VTUU 260800Z 04005KT 340V070 9999 SCT045 33/17 Q1009 NOSIG
cycle: 8

Station Type Date Time Source
VTUU TAF 2022/01/26 06:36 UTC NOAA

TAF VTUU 260500Z 2606/2706 03005KT 9999 FEW030

Example: see airport list